createdAt,value
2023-02-22T00:01:35.372Z,28.58
2023-02-22T00:04:03.703Z,28.67
2023-02-22T00:06:32.259Z,28.34
2023-02-22T00:09:02.390Z,28.52
2023-02-22T00:11:31.573Z,28.53
2023-02-22T00:13:59.284Z,28.76
2023-02-22T00:16:27.141Z,28.59
2023-02-22T00:18:54.953Z,28.70
2023-02-22T00:21:22.736Z,28.58
2023-02-22T00:23:50.422Z,28.42
2023-02-22T00:26:23.494Z,28.70
2023-02-22T00:28:51.649Z,28.53
2023-02-22T00:31:19.975Z,28.65
2023-02-22T00:33:47.906Z,28.57
2023-02-22T00:36:16.012Z,28.66
2023-02-22T00:38:43.658Z,28.66
2023-02-22T00:41:11.405Z,28.60
2023-02-22T00:43:40.530Z,28.60
2023-02-22T00:46:08.300Z,28.95
2023-02-22T00:48:36.005Z,28.67
2023-02-22T00:51:03.733Z,28.88
2023-02-22T00:53:31.416Z,28.63
2023-02-22T00:55:59.285Z,28.77
2023-02-22T00:58:26.957Z,28.63
2023-02-22T01:00:55.987Z,28.96
2023-02-22T01:03:23.692Z,28.71
2023-02-22T01:05:51.483Z,28.82
2023-02-22T01:08:19.186Z,28.71
2023-02-22T01:10:47.404Z,28.97
2023-02-22T01:13:34.915Z,28.76
2023-02-22T01:16:03.984Z,28.63
2023-02-22T01:18:31.689Z,28.85
2023-02-22T01:21:00.934Z,28.96
2023-02-22T01:23:28.568Z,28.98
2023-02-22T01:25:56.236Z,28.99
2023-02-22T01:28:23.987Z,28.91
2023-02-22T01:30:51.671Z,28.71
2023-02-22T01:33:23.418Z,28.66
2023-02-22T01:35:51.331Z,28.87
2023-02-22T01:38:19.045Z,28.83
2023-02-22T01:40:48.228Z,28.98
2023-02-22T01:43:34.307Z,28.79
2023-02-22T01:46:02.263Z,28.85
2023-02-22T01:48:42.201Z,28.81
2023-02-22T01:51:11.831Z,28.77
2023-02-22T01:53:40.538Z,29.04
2023-02-22T01:56:08.198Z,29.05
2023-02-22T01:58:36.234Z,29.12
2023-02-22T02:01:03.892Z,28.87
2023-02-22T02:03:33.205Z,29.02
2023-02-22T02:06:02.870Z,29.02
2023-02-22T02:08:33.123Z,29.04
2023-02-22T02:11:00.760Z,28.86
2023-02-22T02:13:28.611Z,28.92
2023-02-22T02:15:56.252Z,29.06
2023-02-22T02:18:23.958Z,29.17
2023-02-22T02:20:55.412Z,29.05
2023-02-22T02:23:35.554Z,28.84
2023-02-22T02:26:17.867Z,29.02
2023-02-22T02:29:06.290Z,28.85
2023-02-22T02:31:52.331Z,28.70
2023-02-22T02:34:24.262Z,28.99
2023-02-22T02:36:53.891Z,28.76
2023-02-22T02:39:21.921Z,28.90
2023-02-22T02:41:50.663Z,29.01
2023-02-22T02:44:18.838Z,28.74
2023-02-22T02:46:47.803Z,29.02
2023-02-22T02:49:16.716Z,29.02
2023-02-22T02:51:47.331Z,28.99
2023-02-22T02:54:15.067Z,28.70
2023-02-22T02:56:42.823Z,28.76
2023-02-22T02:59:20.283Z,29.07
2023-02-22T03:01:50.171Z,28.90
2023-02-22T03:04:30.120Z,28.96
2023-02-22T03:07:15.660Z,28.88
2023-02-22T03:09:49.011Z,28.87
2023-02-22T03:12:19.681Z,28.96
2023-02-22T03:14:50.785Z,28.82
2023-02-22T03:17:19.347Z,28.72
2023-02-22T03:19:47.166Z,28.79
2023-02-22T03:22:15.816Z,28.72
2023-02-22T03:24:43.880Z,28.86
2023-02-22T03:27:13.631Z,28.97
2023-02-22T03:29:42.890Z,28.95
2023-02-22T03:32:11.177Z,28.76
2023-02-22T03:34:40.837Z,28.90
2023-02-22T03:37:09.379Z,28.66
2023-02-22T03:39:37.161Z,28.98
2023-02-22T03:42:05.484Z,28.71
2023-02-22T03:44:34.495Z,28.62
2023-02-22T03:47:03.137Z,28.95
2023-02-22T03:49:35.101Z,28.64
2023-02-22T03:52:02.953Z,28.83
2023-02-22T03:54:32.580Z,28.75
2023-02-22T03:57:01.268Z,28.96
2023-02-22T03:59:29.445Z,28.75
2023-02-22T04:01:58.503Z,28.81
2023-02-22T04:04:26.298Z,28.96
2023-02-22T04:06:54.023Z,28.86
2023-02-22T04:09:21.813Z,28.87
2023-02-22T04:11:49.417Z,28.89
2023-02-22T04:14:17.094Z,28.91
2023-02-22T04:16:45.044Z,28.83
2023-02-22T04:19:14.073Z,28.76
2023-02-22T04:21:41.751Z,28.92
2023-02-22T04:24:09.420Z,28.69
2023-02-22T04:26:37.123Z,28.54
2023-02-22T04:29:38.666Z,28.78
2023-02-22T04:32:06.476Z,28.88
2023-02-22T04:34:35.589Z,28.64
2023-02-22T04:37:03.644Z,28.81
2023-02-22T04:39:31.454Z,28.84
2023-02-22T04:41:59.092Z,28.85
2023-02-22T04:44:26.721Z,28.73
2023-02-22T04:46:54.414Z,28.79
2023-02-22T04:49:22.117Z,28.78
2023-02-22T04:51:51.180Z,28.77
2023-02-22T04:54:18.871Z,28.66
2023-02-22T04:56:46.492Z,28.52
2023-02-22T04:59:14.171Z,28.74
2023-02-22T05:01:41.832Z,28.63
2023-02-22T05:04:09.589Z,28.89
2023-02-22T05:06:37.287Z,28.71
2023-02-22T05:09:06.394Z,28.80
2023-02-22T05:11:34.109Z,28.71
2023-02-22T05:14:01.823Z,28.75
2023-02-22T05:16:29.474Z,28.67
2023-02-22T05:18:57.200Z,28.78
2023-02-22T05:21:24.932Z,28.92
2023-02-22T05:23:52.616Z,28.79
2023-02-22T05:26:21.699Z,28.90
2023-02-22T05:28:49.378Z,28.63
2023-02-22T05:31:17.763Z,28.95
2023-02-22T05:33:45.643Z,28.70
2023-02-22T05:36:13.294Z,28.73
2023-02-22T05:38:43.617Z,28.92
2023-02-22T05:41:11.849Z,28.78
2023-02-22T05:43:41.265Z,28.95
2023-02-22T05:46:09.064Z,28.89
2023-02-22T05:48:36.725Z,28.79
2023-02-22T05:51:04.962Z,28.68
2023-02-22T05:53:32.699Z,28.78
2023-02-22T05:56:00.628Z,28.97
2023-02-22T05:58:28.329Z,29.04
2023-02-22T06:00:57.452Z,28.84
2023-02-22T06:03:25.144Z,29.09
2023-02-22T06:05:52.842Z,28.78
2023-02-22T06:08:20.560Z,28.73
2023-02-22T06:10:48.193Z,28.89
2023-02-22T06:13:16.121Z,28.84
2023-02-22T06:15:43.763Z,28.87
2023-02-22T06:18:12.834Z,28.90
2023-02-22T06:20:40.574Z,29.05
2023-02-22T06:23:08.250Z,28.96
2023-02-22T06:25:36.545Z,28.74
2023-02-22T06:28:04.696Z,28.80
2023-02-22T06:30:33.410Z,28.77
2023-02-22T06:33:01.170Z,28.76
2023-02-22T06:35:30.262Z,28.74
2023-02-22T06:37:57.906Z,28.98
2023-02-22T06:40:29.781Z,29.00
2023-02-22T06:42:57.515Z,28.93
2023-02-22T06:45:25.221Z,28.72
2023-02-22T06:47:52.933Z,28.96
2023-02-22T06:50:21.705Z,28.97
2023-02-22T06:52:50.732Z,28.82
2023-02-22T06:55:19.118Z,28.99
2023-02-22T06:57:46.842Z,29.12
2023-02-22T07:00:16.008Z,28.92
2023-02-22T07:02:43.864Z,28.80
2023-02-22T07:05:11.711Z,28.97
2023-02-22T07:07:39.946Z,28.61
2023-02-22T07:10:09.513Z,28.95
2023-02-22T07:12:37.156Z,29.03
2023-02-22T07:15:05.060Z,28.70
2023-02-22T07:17:32.725Z,28.65
2023-02-22T07:20:00.994Z,28.78
2023-02-22T07:22:28.649Z,28.79
2023-02-22T07:24:56.425Z,28.76
2023-02-22T07:27:25.408Z,28.94
2023-02-22T07:29:59.048Z,28.59
2023-02-22T07:32:26.743Z,28.63
2023-02-22T07:34:54.512Z,28.71
2023-02-22T07:37:22.312Z,28.82
2023-02-22T07:39:49.945Z,28.93
2023-02-22T07:42:17.603Z,28.78
2023-02-22T07:45:05.627Z,29.04
2023-02-22T07:47:33.276Z,28.74
2023-02-22T07:50:01.210Z,28.89
2023-02-22T07:52:29.204Z,28.91
2023-02-22T07:54:56.866Z,28.98
2023-02-22T07:57:24.565Z,28.93
2023-02-22T07:59:52.453Z,28.77
2023-02-22T08:02:21.495Z,29.19
2023-02-22T08:04:49.429Z,29.05
2023-02-22T08:07:17.136Z,28.88
2023-02-22T08:09:45.378Z,28.93
2023-02-22T08:12:13.112Z,29.09
2023-02-22T08:14:40.778Z,29.09
2023-02-22T08:17:08.987Z,29.03
2023-02-22T08:19:39.366Z,28.88
2023-02-22T08:22:06.960Z,28.71
2023-02-22T08:24:34.720Z,29.14
2023-02-22T08:27:02.546Z,28.83
2023-02-22T08:29:33.528Z,28.73
2023-02-22T08:32:01.848Z,28.60
2023-02-22T08:34:29.596Z,28.90
2023-02-22T08:36:59.237Z,28.91
2023-02-22T08:39:26.919Z,28.93
2023-02-22T08:41:54.981Z,28.86
2023-02-22T08:44:24.215Z,28.75
2023-02-22T08:46:52.906Z,28.67
2023-02-22T08:49:20.716Z,28.77
2023-02-22T08:51:49.113Z,28.86
2023-02-22T08:54:18.672Z,28.70
2023-02-22T08:56:47.343Z,28.66
2023-02-22T08:59:15.029Z,28.76
2023-02-22T09:01:43.353Z,28.88
2023-02-22T09:04:11.390Z,28.64
2023-02-22T09:06:41.162Z,28.85
2023-02-22T09:09:09.119Z,28.82
2023-02-22T09:11:38.136Z,28.66
2023-02-22T09:14:05.919Z,28.82
2023-02-22T09:16:33.636Z,28.92
2023-02-22T09:19:01.739Z,28.80
2023-02-22T09:21:29.447Z,28.77
2023-02-22T09:23:57.195Z,28.69
2023-02-22T09:26:24.913Z,28.81
2023-02-22T09:28:54.184Z,28.94
2023-02-22T09:31:22.465Z,28.92
2023-02-22T09:33:50.510Z,28.65
2023-02-22T09:36:18.498Z,28.71
2023-02-22T09:38:47.436Z,28.73
2023-02-22T09:41:15.905Z,28.94
2023-02-22T09:43:46.601Z,28.91
2023-02-22T09:46:34.994Z,28.78
2023-02-22T09:49:06.242Z,29.04
2023-02-22T09:51:36.787Z,29.01
2023-02-22T09:54:05.947Z,28.90
2023-02-22T09:56:34.004Z,28.94
2023-02-22T09:59:03.752Z,28.99
2023-02-22T10:01:33.303Z,28.90
2023-02-22T10:04:02.559Z,28.69
2023-02-22T10:06:34.148Z,28.95
2023-02-22T10:09:07.821Z,28.75
2023-02-22T10:12:00.565Z,28.75
2023-02-22T10:14:33.392Z,28.71
2023-02-22T10:17:03.209Z,28.99
2023-02-22T10:19:44.708Z,28.88
2023-02-22T10:22:20.993Z,29.00
2023-02-22T10:24:52.437Z,28.84
2023-02-22T10:27:21.129Z,28.93
2023-02-22T10:29:49.798Z,29.00
2023-02-22T10:32:19.032Z,28.80
2023-02-22T10:34:48.501Z,28.99
2023-02-22T10:37:20.956Z,28.93
2023-02-22T10:39:48.633Z,28.72
2023-02-22T10:42:17.000Z,28.94
2023-02-22T10:44:44.644Z,28.96
2023-02-22T10:47:13.411Z,28.93
2023-02-22T10:49:42.514Z,28.80
2023-02-22T10:52:14.290Z,28.59
2023-02-22T10:54:43.959Z,28.62
2023-02-22T10:57:12.590Z,28.68
2023-02-22T10:59:40.672Z,28.75
2023-02-22T11:02:11.708Z,28.81
2023-02-22T11:04:46.019Z,28.85
2023-02-22T11:07:20.014Z,28.75
2023-02-22T11:09:51.164Z,28.94
2023-02-22T11:12:20.214Z,28.54
2023-02-22T11:14:47.951Z,28.59
2023-02-22T11:17:18.669Z,28.67
2023-02-22T11:19:49.583Z,28.74
2023-02-22T11:22:21.689Z,28.81
2023-02-22T11:24:51.765Z,28.56
2023-02-22T11:27:27.324Z,28.64
2023-02-22T11:29:55.074Z,28.54
2023-02-22T11:32:24.660Z,28.73
2023-02-22T11:35:03.684Z,28.74
2023-02-22T11:37:36.750Z,28.54
2023-02-22T11:40:07.192Z,28.60
2023-02-22T11:42:34.817Z,28.51
2023-02-22T11:45:13.299Z,28.48
2023-02-22T11:47:48.142Z,28.83
2023-02-22T11:50:19.349Z,28.83
2023-02-22T11:52:47.381Z,28.82
2023-02-22T11:55:36.296Z,28.53
2023-02-22T11:58:14.658Z,28.72
2023-02-22T12:00:47.022Z,28.75
2023-02-22T12:03:19.625Z,28.50
2023-02-22T12:06:01.465Z,28.72
2023-02-22T12:08:31.477Z,28.41
2023-02-22T12:11:04.192Z,28.67
2023-02-22T12:13:36.810Z,28.41
2023-02-22T12:16:07.518Z,28.47
2023-02-22T12:18:36.470Z,28.55
2023-02-22T12:21:06.405Z,28.62
2023-02-22T12:23:36.412Z,28.37
2023-02-22T12:26:07.245Z,28.64
2023-02-22T12:28:36.140Z,28.66
2023-02-22T12:31:19.627Z,28.70
2023-02-22T12:33:50.009Z,28.49
2023-02-22T12:36:19.448Z,28.60
2023-02-22T12:38:48.231Z,28.57
2023-02-22T12:41:20.420Z,28.66
2023-02-22T12:43:48.804Z,28.32
2023-02-22T12:46:18.837Z,28.55
2023-02-22T12:48:47.309Z,28.45
2023-02-22T12:51:22.375Z,28.36
2023-02-22T12:53:53.221Z,28.51
2023-02-22T12:56:23.225Z,28.46
2023-02-22T12:58:53.214Z,28.42
2023-02-22T13:01:21.478Z,28.49
2023-02-22T13:03:50.529Z,28.51
2023-02-22T13:06:35.661Z,28.37
2023-02-22T13:09:06.712Z,28.42
2023-02-22T13:11:37.012Z,28.44
2023-02-22T13:14:08.643Z,28.40
2023-02-22T13:16:38.532Z,28.54
2023-02-22T13:19:08.908Z,28.52
2023-02-22T13:21:38.950Z,28.57
2023-02-22T13:24:08.383Z,28.28
2023-02-22T13:26:38.786Z,28.29
2023-02-22T13:29:09.205Z,28.25
2023-02-22T13:31:43.629Z,28.55
2023-02-22T13:34:16.769Z,28.35
2023-02-22T13:36:49.916Z,28.48
2023-02-22T13:39:28.454Z,28.55
2023-02-22T13:42:14.227Z,28.51
2023-02-22T13:48:14.606Z,28.33
2023-02-22T13:50:46.562Z,28.37
2023-02-22T13:53:16.043Z,28.33
2023-02-22T13:55:45.868Z,28.48
2023-02-22T13:58:15.484Z,28.54
2023-02-22T14:00:46.237Z,28.43
2023-02-22T14:03:34.357Z,28.42
2023-02-22T14:06:03.134Z,28.44
2023-02-22T14:08:46.196Z,28.64
2023-02-22T14:11:33.149Z,28.50
2023-02-22T14:14:20.504Z,28.53
2023-02-22T14:17:07.258Z,28.47
2023-02-22T14:19:34.970Z,28.70
2023-02-22T14:22:03.814Z,28.55
2023-02-22T14:24:31.586Z,28.64
2023-02-22T14:27:04.236Z,28.47
2023-02-22T14:29:33.270Z,28.73
2023-02-22T14:32:03.762Z,28.71
2023-02-22T14:34:48.853Z,28.43
2023-02-22T14:37:19.165Z,28.62
2023-02-22T14:39:49.402Z,28.65
2023-02-22T14:42:20.035Z,28.58
2023-02-22T14:44:52.178Z,28.58
2023-02-22T14:47:21.834Z,28.53
2023-02-22T14:49:50.875Z,28.63
2023-02-22T14:52:20.203Z,28.77
2023-02-22T14:54:53.774Z,28.47
2023-02-22T14:57:24.476Z,28.61
2023-02-22T14:59:58.729Z,28.83
2023-02-22T15:02:26.996Z,28.73
2023-02-22T15:04:55.822Z,28.52
2023-02-22T15:07:27.468Z,28.58
2023-02-22T15:10:10.616Z,28.71
2023-02-22T15:12:38.239Z,28.80
2023-02-22T15:15:16.070Z,28.90
2023-02-22T15:17:46.277Z,28.57
2023-02-22T15:20:16.669Z,28.55
2023-02-22T15:22:44.319Z,28.75
2023-02-22T15:25:13.590Z,28.88
2023-02-22T15:27:41.731Z,28.63
2023-02-22T15:30:11.328Z,28.65
2023-02-22T15:32:53.186Z,28.92
2023-02-22T15:35:29.606Z,28.99
2023-02-22T15:38:00.462Z,28.77
2023-02-22T15:40:33.964Z,28.92
2023-02-22T15:43:02.403Z,28.79
2023-02-22T15:45:32.865Z,29.08
2023-02-22T15:48:02.132Z,28.95
2023-02-22T15:50:31.610Z,28.88
2023-02-22T15:53:00.290Z,28.99
2023-02-22T15:55:30.389Z,29.15
2023-02-22T15:57:59.117Z,28.96
2023-02-22T16:00:34.172Z,28.90
2023-02-22T16:03:03.155Z,28.89
2023-02-22T16:05:33.512Z,29.05
2023-02-22T16:08:01.805Z,28.97
2023-02-22T16:10:30.173Z,28.92
2023-02-22T16:13:05.942Z,29.13
2023-02-22T16:15:33.572Z,28.99
2023-02-22T16:18:20.852Z,29.25
2023-02-22T16:20:48.506Z,29.31
2023-02-22T16:23:26.765Z,29.40
2023-02-22T16:26:05.447Z,29.00
2023-02-22T16:28:36.826Z,29.23
2023-02-22T16:31:04.833Z,29.36
2023-02-22T16:33:35.398Z,29.19
2023-02-22T16:36:08.149Z,29.35
2023-02-22T16:38:39.157Z,29.31
2023-02-22T16:41:07.258Z,29.27
2023-02-22T16:43:36.852Z,29.27
2023-02-22T16:46:04.787Z,29.45
2023-02-22T16:48:34.344Z,29.39
2023-02-22T16:51:10.857Z,29.28
2023-02-22T16:53:42.810Z,29.54
2023-02-22T16:56:10.579Z,29.51
2023-02-22T16:58:40.273Z,29.37
2023-02-22T17:01:07.973Z,29.56
2023-02-22T17:03:35.719Z,29.25
2023-02-22T17:06:05.942Z,29.26
2023-02-22T17:08:33.638Z,29.51
2023-02-22T17:11:02.081Z,29.31
2023-02-22T17:13:29.870Z,29.61
2023-02-22T17:15:58.990Z,29.48
2023-02-22T17:18:28.796Z,29.47
2023-02-22T17:20:57.607Z,29.55
2023-02-22T17:23:27.613Z,29.52
2023-02-22T17:25:56.416Z,29.37
2023-02-22T17:28:24.564Z,29.43
2023-02-22T17:30:54.024Z,29.53
2023-02-22T17:33:22.251Z,29.71
2023-02-22T17:35:49.927Z,29.62
2023-02-22T17:38:19.610Z,29.51
2023-02-22T17:40:48.690Z,29.44
2023-02-22T17:43:17.484Z,29.62
2023-02-22T17:45:46.157Z,29.59
2023-02-22T17:48:18.035Z,29.53
2023-02-22T17:50:49.416Z,29.74
2023-02-22T17:53:19.130Z,29.87
2023-02-22T17:55:48.141Z,29.61
2023-02-22T17:58:16.984Z,29.74
2023-02-22T18:00:45.754Z,29.57
2023-02-22T18:03:15.915Z,29.75
2023-02-22T18:05:44.002Z,29.73
2023-02-22T18:08:12.679Z,29.67
2023-02-22T18:10:42.278Z,29.63
2023-02-22T18:13:18.157Z,29.68
2023-02-22T18:15:46.763Z,29.65
2023-02-22T18:18:16.949Z,29.70
2023-02-22T18:20:44.687Z,29.77
2023-02-22T18:23:18.019Z,29.63
2023-02-22T18:25:57.140Z,29.76
2023-02-22T18:28:34.009Z,29.90
2023-02-22T18:31:06.971Z,29.57
2023-02-22T18:33:35.541Z,29.74
2023-02-22T18:36:03.399Z,29.93
2023-02-22T18:38:32.111Z,29.81
2023-02-22T18:41:00.326Z,29.91
2023-02-22T18:43:33.083Z,29.67
2023-02-22T18:46:07.173Z,29.85
2023-02-22T18:48:36.103Z,29.81
2023-02-22T18:51:06.901Z,29.95
2023-02-22T18:53:35.627Z,29.65
2023-02-22T18:56:06.253Z,29.99
2023-02-22T18:58:35.185Z,29.92
2023-02-22T19:01:02.916Z,29.81
2023-02-22T19:03:32.570Z,29.89
2023-02-22T19:06:02.828Z,29.65
2023-02-22T19:08:32.526Z,29.84
2023-02-22T19:11:06.961Z,30.06
2023-02-22T19:13:36.043Z,29.98
2023-02-22T19:16:08.142Z,29.98
2023-02-22T19:18:37.741Z,29.82
2023-02-22T19:21:09.354Z,29.76
2023-02-22T19:23:38.124Z,29.92
2023-02-22T19:26:12.028Z,29.99
2023-02-22T19:28:39.663Z,29.84
2023-02-22T19:31:15.930Z,29.82
2023-02-22T19:33:45.313Z,30.02
2023-02-22T19:36:14.327Z,29.90
2023-02-22T19:38:42.618Z,29.86
2023-02-22T19:41:13.321Z,30.00
2023-02-22T19:43:40.905Z,30.12
2023-02-22T19:46:09.515Z,30.08
2023-02-22T19:48:37.275Z,30.28
2023-02-22T19:51:09.132Z,30.18
2023-02-22T19:53:39.060Z,30.12
2023-02-22T19:56:08.221Z,30.06
2023-02-22T19:58:36.796Z,30.22
2023-02-22T20:01:06.223Z,30.08
2023-02-22T20:03:35.239Z,30.03
2023-02-22T20:06:03.954Z,30.30
2023-02-22T20:08:32.945Z,29.98
2023-02-22T20:11:01.541Z,29.93
2023-02-22T20:13:29.166Z,30.14
2023-02-22T20:15:57.754Z,29.93
2023-02-22T20:18:25.420Z,30.09
2023-02-22T20:20:53.144Z,29.98
2023-02-22T20:23:21.819Z,30.19
2023-02-22T20:25:54.316Z,29.97
2023-02-22T20:28:22.893Z,29.96
2023-02-22T20:30:51.709Z,30.22
2023-02-22T20:33:20.527Z,29.90
2023-02-22T20:35:48.423Z,30.10
2023-02-22T20:38:17.088Z,30.20
2023-02-22T20:40:46.777Z,29.97
2023-02-22T20:43:18.233Z,29.99
2023-02-22T20:45:45.985Z,29.99
2023-02-22T20:48:14.560Z,30.01
2023-02-22T20:50:43.455Z,30.09
2023-02-22T20:53:12.183Z,30.00
2023-02-22T20:55:40.494Z,29.93
2023-02-22T20:58:08.114Z,30.16
2023-02-22T21:00:37.787Z,30.31
2023-02-22T21:03:07.080Z,30.00
2023-02-22T21:05:36.169Z,30.30
2023-02-22T21:08:05.208Z,30.03
2023-02-22T21:10:35.062Z,30.18
2023-02-22T21:13:05.509Z,29.91
2023-02-22T21:15:36.221Z,29.95
2023-02-22T21:18:03.919Z,29.98
2023-02-22T21:20:32.922Z,30.12
2023-02-22T21:23:06.171Z,30.01
2023-02-22T21:25:33.840Z,30.20
2023-02-22T21:28:03.163Z,30.16
2023-02-22T21:30:30.902Z,29.99
2023-02-22T21:32:59.538Z,30.07
2023-02-22T21:35:27.258Z,30.27
2023-02-22T21:37:56.351Z,30.06
2023-02-22T21:40:27.107Z,29.91
2023-02-22T21:42:54.729Z,29.90
2023-02-22T21:45:23.634Z,30.14
2023-02-22T21:47:54.645Z,29.85
2023-02-22T21:50:26.425Z,30.14
2023-02-22T21:52:55.416Z,30.06
2023-02-22T21:55:25.441Z,29.93
2023-02-22T21:57:53.195Z,29.86
2023-02-22T22:00:30.587Z,29.89
2023-02-22T22:02:59.222Z,30.09
2023-02-22T22:05:34.337Z,29.97
2023-02-22T22:08:02.129Z,30.03
2023-02-22T22:10:33.255Z,30.27
2023-02-22T22:13:01.704Z,29.94
2023-02-22T22:15:30.355Z,29.99
2023-02-22T22:18:06.355Z,29.98
2023-02-22T22:20:33.993Z,30.07
2023-02-22T22:23:02.393Z,30.18
2023-02-22T22:25:31.522Z,30.19
2023-02-22T22:28:00.489Z,29.96
2023-02-22T22:30:28.468Z,30.09
2023-02-22T22:32:56.902Z,29.92
2023-02-22T22:35:24.683Z,29.94
2023-02-22T22:37:53.010Z,29.94
2023-02-22T22:40:20.729Z,30.03
2023-02-22T22:42:51.107Z,30.29
2023-02-22T22:45:18.861Z,30.09
2023-02-22T22:47:47.513Z,29.93
2023-02-22T22:50:20.436Z,30.10
2023-02-22T22:52:49.628Z,29.93
2023-02-22T22:55:18.983Z,29.86
2023-02-22T22:57:47.287Z,30.19
2023-02-22T23:00:36.050Z,29.86
2023-02-22T23:03:06.177Z,30.03
2023-02-22T23:05:36.992Z,30.05
2023-02-22T23:08:05.429Z,30.05
2023-02-22T23:10:33.210Z,30.06
2023-02-22T23:13:01.376Z,29.94
2023-02-22T23:15:30.500Z,30.21
2023-02-22T23:17:59.343Z,29.95
2023-02-22T23:20:27.653Z,30.01
2023-02-22T23:22:58.060Z,30.23
2023-02-22T23:25:25.734Z,29.96
2023-02-22T23:27:53.446Z,30.00
2023-02-22T23:30:21.088Z,30.08
2023-02-22T23:32:50.089Z,30.26
2023-02-22T23:35:19.113Z,29.93
2023-02-22T23:37:47.962Z,30.20
2023-02-22T23:40:18.285Z,30.08
2023-02-22T23:42:50.022Z,30.00
2023-02-22T23:45:23.624Z,30.09
2023-02-22T23:48:01.626Z,29.89
2023-02-22T23:50:30.348Z,30.21
2023-02-22T23:52:58.236Z,29.99
2023-02-22T23:55:26.030Z,30.02
2023-02-22T23:57:59.248Z,30.00
